createdAt,value
2017-07-12T00:00:13.081Z,82.1
2017-07-12T00:00:41.127Z,81.68
2017-07-12T00:01:09.357Z,81.3
2017-07-12T00:01:37.506Z,81.59
2017-07-12T00:02:05.462Z,82.01
2017-07-12T00:02:33.500Z,81.87
2017-07-12T00:03:01.437Z,81.3
2017-07-12T00:03:29.557Z,82.26
2017-07-12T00:03:57.674Z,83.03
2017-07-12T00:04:25.817Z,83.7
2017-07-12T00:04:53.923Z,83.6
2017-07-12T00:05:21.952Z,83.12
2017-07-12T00:05:50.079Z,83.22
2017-07-12T00:06:18.001Z,84.18
2017-07-12T00:06:46.104Z,84.47
2017-07-12T00:07:14.129Z,83.89
2017-07-12T00:07:42.044Z,83.22
2017-07-12T00:08:10.149Z,82.54
2017-07-12T00:08:38.081Z,81.87
2017-07-12T00:09:06.110Z,81.78
2017-07-12T00:09:34.015Z,81.34
2017-07-12T00:10:02.139Z,81.4
2017-07-12T00:10:30.146Z,81.59
2017-07-12T00:10:58.194Z,81.59
2017-07-12T00:11:26.217Z,81.4
2017-07-12T00:11:54.375Z,81.63
2017-07-12T00:12:22.385Z,81.1
2017-07-12T00:12:50.430Z,81.05
2017-07-12T00:13:18.347Z,81.05
2017-07-12T00:13:46.435Z,81.01
2017-07-12T00:14:14.565Z,81.1
2017-07-12T00:14:42.588Z,81.53
2017-07-12T00:15:10.427Z,81.24
2017-07-12T00:15:38.543Z,81.05
2017-07-12T00:16:06.461Z,80.96
2017-07-12T00:16:34.398Z,80.96
2017-07-12T00:17:02.426Z,80.57
2017-07-12T00:17:30.547Z,80.76
2017-07-12T00:17:58.645Z,80.57
2017-07-12T00:18:26.493Z,81.05
2017-07-12T00:18:54.530Z,80.76
2017-07-12T00:19:22.676Z,80.96
2017-07-12T00:19:50.782Z,80.38
2017-07-12T00:20:18.703Z,80.28
2017-07-12T00:20:46.713Z,80.47
2017-07-12T00:21:14.986Z,79.99
2017-07-12T00:21:42.827Z,80.19
2017-07-12T00:22:10.672Z,79.9
2017-07-12T00:22:38.466Z,80.09
2017-07-12T00:23:06.410Z,79.99
2017-07-12T00:23:34.211Z,79.8
2017-07-12T00:24:02.226Z,79.42
2017-07-12T00:24:30.148Z,79.99
2017-07-12T00:24:58.083Z,79.9
2017-07-12T00:25:26.126Z,79.71
2017-07-12T00:25:54.153Z,79.61
2017-07-12T00:26:22.272Z,79.42
2017-07-12T00:26:50.180Z,79.32
2017-07-12T00:27:18.212Z,79.61
2017-07-12T00:27:46.120Z,80.19
2017-07-12T00:28:14.223Z,80.38
2017-07-12T00:28:42.167Z,80.28
2017-07-12T00:29:10.093Z,79.9
2017-07-12T00:29:38.038Z,79.71
2017-07-12T00:30:06.060Z,79.9
2017-07-12T00:30:34.071Z,79.32
2017-07-12T00:31:02.393Z,79.42
2017-07-12T00:31:30.362Z,79.03
2017-07-12T00:31:58.513Z,79.32
2017-07-12T00:32:26.636Z,80.28
2017-07-12T00:32:54.770Z,79.9
2017-07-12T00:33:22.870Z,79.9
2017-07-12T00:33:50.958Z,79.52
2017-07-12T00:34:18.803Z,79.52
2017-07-12T00:34:46.829Z,79.32
2017-07-12T00:35:14.865Z,79.32
2017-07-12T00:35:42.981Z,79.61
2017-07-12T00:36:11.286Z,80.09
2017-07-12T00:36:39.287Z,80.19
2017-07-12T00:37:07.215Z,80.28
2017-07-12T00:37:35.343Z,80.38
2017-07-12T00:38:03.439Z,79.42
2017-07-12T00:38:31.558Z,79.22
2017-07-12T00:38:59.698Z,79.8
2017-07-12T00:39:27.853Z,79.52
2017-07-12T00:39:55.871Z,79.22
2017-07-12T00:40:24.018Z,79.71
2017-07-12T00:40:52.048Z,79.99
2017-07-12T00:41:19.979Z,80.19
2017-07-12T00:41:48.103Z,80.47
2017-07-12T00:42:16.025Z,80.86
2017-07-12T00:42:44.213Z,80.38
2017-07-12T00:43:12.158Z,80.19
2017-07-12T00:43:40.169Z,79.9
2017-07-12T00:44:08.208Z,80.38
2017-07-12T00:44:36.324Z,80.47
2017-07-12T00:45:04.455Z,80.09
2017-07-12T00:45:32.472Z,79.99
2017-07-12T00:46:00.607Z,79.9
2017-07-12T00:46:28.638Z,79.71
2017-07-12T00:46:56.590Z,79.71
2017-07-12T00:47:24.733Z,80.19
2017-07-12T00:47:52.754Z,80.09
2017-07-12T00:48:20.896Z,80.09
2017-07-12T00:48:48.932Z,80.09
2017-07-12T00:49:16.843Z,80.19
2017-07-12T00:49:44.639Z,80.09
2017-07-12T00:50:12.682Z,79.42
2017-07-12T00:50:40.727Z,79.71
2017-07-12T00:51:08.758Z,79.8
2017-07-12T00:51:37.085Z,80.09
2017-07-12T00:52:05.200Z,79.99
2017-07-12T00:52:33.221Z,79.8
2017-07-12T00:53:01.262Z,79.9
2017-07-12T00:53:29.285Z,79.71
2017-07-12T00:53:57.334Z,79.99
2017-07-12T00:54:25.472Z,79.8
2017-07-12T00:54:53.517Z,79.71
2017-07-12T00:55:21.441Z,79.8
2017-07-12T00:55:49.459Z,79.8
2017-07-12T00:56:17.802Z,79.71
2017-07-12T00:56:46.134Z,79.8
2017-07-12T00:57:14.338Z,79.8
2017-07-12T00:57:42.305Z,79.9
2017-07-12T00:58:10.353Z,79.71
2017-07-12T00:58:38.485Z,79.52
2017-07-12T00:59:06.527Z,80.19
2017-07-12T00:59:34.375Z,79.8
2017-07-12T01:00:02.524Z,80.09
2017-07-12T01:00:30.542Z,79.71
2017-07-12T01:00:58.493Z,79.8
2017-07-12T01:01:26.619Z,80.09
2017-07-12T01:01:54.740Z,80.47
2017-07-12T01:02:22.781Z,80.19
2017-07-12T01:02:50.822Z,80.19
2017-07-12T01:03:18.741Z,80.19
2017-07-12T01:03:46.765Z,80.19
2017-07-12T01:04:14.686Z,80.38
2017-07-12T01:04:42.822Z,80.86
2017-07-12T01:05:10.913Z,80.66
2017-07-12T01:05:38.853Z,80.86
2017-07-12T01:06:06.761Z,80.86
2017-07-12T01:06:34.895Z,80.96
2017-07-12T01:07:03.009Z,81.24
2017-07-12T01:07:31.162Z,81.53
2017-07-12T01:07:59.090Z,81.34
2017-07-12T01:08:27.105Z,81.53
2017-07-12T01:08:55.228Z,82.1
2017-07-12T01:09:23.166Z,81.53
2017-07-12T01:09:51.280Z,81.97
2017-07-12T01:10:19.420Z,82.1
2017-07-12T01:10:47.535Z,81.92
2017-07-12T01:11:15.646Z,82.3
2017-07-12T01:11:43.681Z,82.07
2017-07-12T01:12:11.690Z,82.2
2017-07-12T01:12:39.743Z,82.45
2017-07-12T01:13:07.907Z,82.16
2017-07-12T01:13:36.034Z,82.07
2017-07-12T01:14:04.066Z,82.07
2017-07-12T01:14:32.073Z,82.74
2017-07-12T01:15:00.080Z,82.64
2017-07-12T01:15:28.186Z,82.54
2017-07-12T01:15:56.211Z,82.64
2017-07-12T01:16:24.146Z,82.64
2017-07-12T01:16:52.191Z,83.03
2017-07-12T01:17:20.318Z,83.03
2017-07-12T01:17:48.332Z,83.12
2017-07-12T01:18:16.479Z,82.93
2017-07-12T01:18:44.406Z,82.84
2017-07-12T01:19:12.328Z,83.03
2017-07-12T01:19:40.470Z,83.03
2017-07-12T01:20:08.598Z,82.93
2017-07-12T01:20:36.748Z,83.03
2017-07-12T01:21:04.885Z,83.31
2017-07-12T01:21:33.180Z,82.93
2017-07-12T01:22:01.289Z,83.31
2017-07-12T01:22:28.996Z,83.03
2017-07-12T01:22:56.818Z,83.03
2017-07-12T01:23:24.741Z,83.31
2017-07-12T01:23:52.657Z,83.12
2017-07-12T01:24:20.696Z,83.22
2017-07-12T01:24:48.707Z,83.12
2017-07-12T01:25:16.727Z,83.03
2017-07-12T01:25:44.550Z,83.22
2017-07-12T01:26:12.582Z,83.22
2017-07-12T01:26:40.683Z,83.6
2017-07-12T01:27:08.795Z,83.6
2017-07-12T01:27:36.810Z,83.8
2017-07-12T01:28:04.738Z,83.6
2017-07-12T01:28:32.815Z,83.41
2017-07-12T01:29:00.779Z,83.31
2017-07-12T01:29:28.715Z,83.03
2017-07-12T01:29:56.638Z,83.6
2017-07-12T01:30:24.928Z,83.41
2017-07-12T01:30:53.068Z,83.41
2017-07-12T01:31:21.098Z,83.22
2017-07-12T01:31:49.361Z,82.93
2017-07-12T01:32:17.467Z,83.03
2017-07-12T01:32:45.500Z,83.51
2017-07-12T01:33:13.433Z,83.98
2017-07-12T01:33:41.579Z,83.7
2017-07-12T01:34:09.513Z,83.7
2017-07-12T01:34:37.626Z,83.89
2017-07-12T01:35:05.639Z,83.7
2017-07-12T01:35:33.491Z,83.7
2017-07-12T01:36:01.554Z,83.89
2017-07-12T01:36:29.460Z,83.89
2017-07-12T01:36:57.504Z,84.08
2017-07-12T01:37:25.425Z,83.8
2017-07-12T01:37:53.453Z,83.89
2017-07-12T01:38:21.377Z,83.6
2017-07-12T01:38:49.514Z,83.6
2017-07-12T01:39:17.611Z,83.89
2017-07-12T01:39:45.753Z,83.56
2017-07-12T01:40:13.768Z,83.65
2017-07-12T01:40:41.905Z,83.85
2017-07-12T01:41:09.839Z,83.56
2017-07-12T01:41:37.984Z,83.56
2017-07-12T01:42:06.006Z,83.56
2017-07-12T01:42:34.133Z,83.56
2017-07-12T01:43:02.006Z,83.94
2017-07-12T01:43:29.834Z,84.04
2017-07-12T01:43:58.018Z,82.98
2017-07-12T01:44:26.139Z,82.79
2017-07-12T01:44:54.258Z,83.18
2017-07-12T01:45:22.224Z,82.31
2017-07-12T01:45:50.332Z,82.7
2017-07-12T01:46:18.340Z,83.47
2017-07-12T01:46:46.348Z,83.18
2017-07-12T01:47:14.529Z,82.98
2017-07-12T01:47:42.656Z,82.51
2017-07-12T01:48:10.648Z,82.7
2017-07-12T01:48:38.658Z,82.41
2017-07-12T01:49:06.690Z,83.37
2017-07-12T01:49:34.737Z,83.47
2017-07-12T01:50:02.880Z,83.08
2017-07-12T01:50:30.903Z,83.18
2017-07-12T01:50:58.955Z,83.94
2017-07-12T01:51:26.791Z,84.33
2017-07-12T01:51:54.918Z,84.52
2017-07-12T01:52:22.830Z,86.34
2017-07-12T01:52:50.759Z,86.63
2017-07-12T01:53:18.699Z,86.25
2017-07-12T01:53:46.731Z,86.54
2017-07-12T01:54:14.771Z,86.34
2017-07-12T01:54:42.490Z,86.4
2017-07-12T01:55:10.601Z,86.82
2017-07-12T01:55:38.633Z,86.44
2017-07-12T01:56:06.762Z,86.72
2017-07-12T01:56:34.791Z,87.3
2017-07-12T01:57:03.016Z,86.92
2017-07-12T01:57:31.053Z,86.97
2017-07-12T01:57:58.979Z,87.11
2017-07-12T01:58:26.897Z,87.45
2017-07-12T01:58:54.917Z,87.55
2017-07-12T01:59:22.911Z,87.35
2017-07-12T01:59:50.934Z,87.55
2017-07-12T02:00:19.056Z,88.31
2017-07-12T02:00:47.073Z,88.02
2017-07-12T02:01:15.209Z,87.74
2017-07-12T02:01:43.335Z,88.12
2017-07-12T02:02:11.591Z,87.93
2017-07-12T02:02:39.489Z,88.02
2017-07-12T02:03:07.631Z,87.35
2017-07-12T02:03:35.784Z,87.26
2017-07-12T02:04:03.820Z,87.26
2017-07-12T02:04:31.753Z,86.58
2017-07-12T02:04:59.864Z,86.68
2017-07-12T02:05:27.772Z,86.78
2017-07-12T02:05:55.818Z,87.07
2017-07-12T02:06:23.864Z,87.07
2017-07-12T02:06:51.971Z,86.58
2017-07-12T02:07:19.990Z,87.26
2017-07-12T02:07:48.073Z,87.26
2017-07-12T02:08:16.184Z,87.16
2017-07-12T02:08:44.315Z,87.16
2017-07-12T02:09:12.239Z,87.55
2017-07-12T02:09:40.277Z,87.3
2017-07-12T02:10:08.339Z,87.45
2017-07-12T02:10:36.475Z,87.49
2017-07-12T02:11:04.500Z,87.35
2017-07-12T02:11:32.646Z,87.45
2017-07-12T02:12:00.789Z,87.55
2017-07-12T02:12:28.903Z,88.17
2017-07-12T02:12:56.715Z,87.07
2017-07-12T02:13:24.839Z,87.26
2017-07-12T02:13:52.964Z,87.45
2017-07-12T02:14:21.011Z,87.55
2017-07-12T02:14:49.126Z,87.45
2017-07-12T02:15:16.943Z,87.11
2017-07-12T02:15:44.968Z,87.55
2017-07-12T02:16:12.897Z,87.59
2017-07-12T02:16:40.715Z,87.26
2017-07-12T02:17:08.757Z,87.35
2017-07-12T02:17:36.889Z,87.26
2017-07-12T02:18:04.900Z,86.68
2017-07-12T02:18:33.377Z,86.01
2017-07-12T02:19:01.482Z,85.63
2017-07-12T02:19:29.380Z,85.72
2017-07-12T02:19:57.513Z,86.11
2017-07-12T02:20:25.641Z,87.35
2017-07-12T02:20:53.762Z,87.07
2017-07-12T02:21:21.802Z,87.26
2017-07-12T02:21:49.726Z,87.93
2017-07-12T02:22:17.670Z,88.89
2017-07-12T02:22:45.495Z,88.41
2017-07-12T02:23:13.497Z,88.79
2017-07-12T02:23:41.510Z,87.35
2017-07-12T02:24:09.329Z,88.12
2017-07-12T02:24:37.435Z,88.22
2017-07-12T02:25:05.580Z,88.79
2017-07-12T02:25:33.585Z,89.27
2017-07-12T02:26:01.527Z,89.27
2017-07-12T02:26:29.472Z,89.61
2017-07-12T02:26:58.548Z,89.04
2017-07-12T02:27:26.562Z,88.94
2017-07-12T02:27:54.595Z,89.61
2017-07-12T02:28:22.499Z,89.47
2017-07-12T02:28:50.430Z,89.42
2017-07-12T02:29:18.454Z,89.61
2017-07-12T02:29:46.609Z,89.51
2017-07-12T02:30:14.750Z,89.9
2017-07-12T02:30:42.870Z,90.14
2017-07-12T02:31:10.872Z,89.9
2017-07-12T02:31:38.895Z,89.61
2017-07-12T02:32:07.091Z,89.51
2017-07-12T02:32:35.006Z,90
2017-07-12T02:33:03.032Z,90.28
2017-07-12T02:33:31.163Z,89.8
2017-07-12T02:33:59.221Z,90.38
2017-07-12T02:34:27.344Z,90.76
2017-07-12T02:34:55.355Z,90.67
2017-07-12T02:35:23.392Z,90.38
2017-07-12T02:35:51.470Z,90.09
2017-07-12T02:36:19.355Z,90
2017-07-12T02:36:47.497Z,90.38
2017-07-12T02:37:15.504Z,90.28
2017-07-12T02:37:43.602Z,90.57
2017-07-12T02:38:11.606Z,90.38
2017-07-12T02:38:39.775Z,90.67
2017-07-12T02:39:07.914Z,91.05
2017-07-12T02:39:35.944Z,90.67
2017-07-12T02:40:03.985Z,91.24
2017-07-12T02:40:31.911Z,90.86
2017-07-12T02:40:59.934Z,90.38
2017-07-12T02:41:27.967Z,90.76
2017-07-12T02:41:55.805Z,91.24
2017-07-12T02:42:23.962Z,91.05
2017-07-12T02:42:51.883Z,91.24
2017-07-12T02:43:20.008Z,90.95
2017-07-12T02:43:48.140Z,90.19
2017-07-12T02:44:16.294Z,90.28
2017-07-12T02:44:44.117Z,90.38
2017-07-12T02:45:12.018Z,90.91
2017-07-12T02:45:40.033Z,91.24
2017-07-12T02:46:08.078Z,90.91
2017-07-12T02:46:36.204Z,91.29
2017-07-12T02:47:04.337Z,91.1
2017-07-12T02:47:32.015Z,91.43
2017-07-12T02:48:00.139Z,91.86
2017-07-12T02:48:27.947Z,91.86
2017-07-12T02:48:55.941Z,91.96
2017-07-12T02:49:23.977Z,91.77
2017-07-12T02:49:52.020Z,91.77
2017-07-12T02:50:20.029Z,91.96
2017-07-12T02:50:48.162Z,92.35
2017-07-12T02:51:16.091Z,92.15
2017-07-12T02:51:44.202Z,92.06
2017-07-12T02:52:12.334Z,92.35
2017-07-12T02:52:40.347Z,92.44
2017-07-12T02:53:08.361Z,92.44
2017-07-12T02:53:36.482Z,92.25
2017-07-12T02:54:04.595Z,92.44
2017-07-12T02:54:32.535Z,91.67
2017-07-12T02:55:00.664Z,92.15
2017-07-12T02:55:28.796Z,91.1
2017-07-12T02:55:56.941Z,90.91
2017-07-12T02:56:25.095Z,90.91
2017-07-12T02:56:53.238Z,91
2017-07-12T02:57:21.366Z,91.1
2017-07-12T02:57:49.392Z,91.1
2017-07-12T02:58:17.529Z,90.62
2017-07-12T02:58:45.653Z,90.81
2017-07-12T02:59:13.769Z,90.23
2017-07-12T02:59:41.786Z,91
2017-07-12T03:00:09.882Z,91.29
2017-07-12T03:00:37.904Z,90.81
2017-07-12T03:01:05.946Z,91.1
2017-07-12T03:01:33.973Z,91.19
2017-07-12T03:02:01.706Z,91
2017-07-12T03:02:30.142Z,91.19
2017-07-12T03:02:58.061Z,91
2017-07-12T03:03:25.950Z,90.62
2017-07-12T03:03:53.980Z,90.62
2017-07-12T03:04:22.100Z,90.53
2017-07-12T03:04:49.900Z,89.86
2017-07-12T03:05:17.722Z,89.57
2017-07-12T03:05:45.468Z,89.18
2017-07-12T03:06:13.216Z,88.9
2017-07-12T03:06:41.045Z,88.32
2017-07-12T03:07:08.867Z,88.32
2017-07-12T03:07:36.698Z,88.32
2017-07-12T03:08:04.724Z,88.51
2017-07-12T03:08:32.747Z,88.7
2017-07-12T03:09:00.898Z,88.9
2017-07-12T03:09:28.941Z,89.47
2017-07-12T03:09:56.872Z,90.43
2017-07-12T03:10:24.905Z,90.29
2017-07-12T03:10:53.021Z,90.96
2017-07-12T03:11:20.952Z,91.29
2017-07-12T03:11:49.000Z,91.15
2017-07-12T03:12:16.928Z,91.1
2017-07-12T03:12:44.848Z,91.29
2017-07-12T03:13:12.888Z,91.44
2017-07-12T03:13:40.922Z,91.82
2017-07-12T03:14:08.960Z,91.72
2017-07-12T03:14:36.985Z,91.77
2017-07-12T03:15:05.010Z,91.86
2017-07-12T03:15:33.147Z,90.77
2017-07-12T03:16:00.958Z,91.05
2017-07-12T03:16:28.996Z,91.19
2017-07-12T03:16:56.920Z,90.96
2017-07-12T03:17:25.040Z,90.67
2017-07-12T03:17:53.043Z,90.62
2017-07-12T03:18:21.172Z,90.62
2017-07-12T03:18:49.138Z,90.81
2017-07-12T03:19:17.058Z,90.67
2017-07-12T03:19:45.186Z,90.58
2017-07-12T03:20:13.083Z,90.62
2017-07-12T03:20:41.119Z,90.58
2017-07-12T03:21:09.107Z,90.29
2017-07-12T03:21:37.108Z,89.86
2017-07-12T03:22:05.230Z,90
2017-07-12T03:22:33.160Z,89.86
2017-07-12T03:23:01.114Z,90.23
2017-07-12T03:23:28.917Z,89.72
2017-07-12T03:23:57.024Z,89.95
2017-07-12T03:24:24.961Z,90.09
2017-07-12T03:24:53.107Z,90.29
2017-07-12T03:25:21.209Z,90.86
2017-07-12T03:25:49.329Z,90.77
2017-07-12T03:26:17.285Z,91.29
2017-07-12T03:26:45.419Z,91.25
2017-07-12T03:27:13.454Z,91.05
2017-07-12T03:27:41.772Z,91.77
2017-07-12T03:28:09.678Z,91.53
2017-07-12T03:28:37.571Z,91.1
2017-07-12T03:29:05.590Z,91.53
2017-07-12T03:29:33.623Z,92.11
2017-07-12T03:30:01.547Z,91.72
2017-07-12T03:30:29.479Z,91.63
2017-07-12T03:30:57.485Z,92.4
2017-07-12T03:31:25.638Z,92.11
2017-07-12T03:31:53.576Z,92.49
2017-07-12T03:32:21.795Z,92.3
2017-07-12T03:32:49.896Z,92.82
2017-07-12T03:33:17.928Z,92.68
2017-07-12T03:33:46.040Z,92.49
2017-07-12T03:34:14.181Z,92.78
2017-07-12T03:34:42.299Z,92.68
2017-07-12T03:35:10.221Z,92.78
2017-07-12T03:35:38.327Z,92.78
2017-07-12T03:36:06.457Z,92.68
2017-07-12T03:36:34.569Z,92.78
2017-07-12T03:37:02.601Z,92.87
2017-07-12T03:37:30.631Z,92.87
2017-07-12T03:37:58.644Z,93.45
2017-07-12T03:38:26.673Z,93.35
2017-07-12T03:38:54.708Z,93.83
2017-07-12T03:39:22.716Z,93.93
2017-07-12T03:39:50.839Z,93.35
2017-07-12T03:40:18.757Z,93.26
2017-07-12T03:40:46.695Z,93.74
2017-07-12T03:41:14.746Z,93.26
2017-07-12T03:41:42.659Z,93.93
2017-07-12T03:42:10.701Z,93.93
2017-07-12T03:42:38.827Z,93.64
2017-07-12T03:43:06.851Z,93.64
2017-07-12T03:43:34.880Z,93.93
2017-07-12T03:44:03.035Z,94.02
2017-07-12T03:44:31.173Z,94.02
2017-07-12T03:44:59.207Z,94.12
2017-07-12T03:45:27.232Z,94.21
2017-07-12T03:45:55.054Z,94.4
2017-07-12T03:46:22.890Z,94.12
2017-07-12T03:46:50.709Z,94.69
2017-07-12T03:47:18.747Z,94.69
2017-07-12T03:47:46.888Z,94.69
2017-07-12T03:48:15.012Z,95.56
2017-07-12T03:48:43.152Z,95.17
2017-07-12T03:49:10.973Z,95.46
2017-07-12T03:49:38.893Z,95.17
2017-07-12T03:50:06.901Z,95.07
2017-07-12T03:50:35.057Z,95.56
2017-07-12T03:51:03.188Z,95.56
2017-07-12T03:51:31.222Z,95.46
2017-07-12T03:51:59.226Z,95.75
2017-07-12T03:52:27.327Z,95.46
2017-07-12T03:52:55.539Z,95.65
2017-07-12T03:53:23.673Z,95.56
2017-07-12T03:53:51.716Z,95.75
2017-07-12T03:54:19.675Z,95.36
2017-07-12T03:54:47.669Z,95.84
2017-07-12T03:55:15.766Z,95.56
2017-07-12T03:55:43.784Z,96.03
2017-07-12T03:56:11.908Z,95.75
2017-07-12T03:56:39.938Z,95.84
2017-07-12T03:57:08.040Z,95.46
2017-07-12T03:57:36.055Z,95.36
2017-07-12T03:58:04.062Z,95.36
2017-07-12T03:58:32.062Z,95.56
2017-07-12T03:58:59.922Z,95.17
2017-07-12T03:59:27.938Z,94.69
2017-07-12T03:59:55.844Z,94.69
2017-07-12T04:00:23.995Z,94.69
2017-07-12T04:00:52.018Z,94.79
2017-07-12T04:01:20.148Z,94.69
2017-07-12T04:01:48.273Z,95.46
2017-07-12T04:02:16.302Z,95.17
2017-07-12T04:02:44.668Z,95.65
2017-07-12T04:03:12.742Z,95.75
2017-07-12T04:03:40.786Z,95.75
2017-07-12T04:04:08.708Z,95.36
2017-07-12T04:04:36.731Z,95.36
2017-07-12T04:05:04.752Z,95.65
2017-07-12T04:05:32.783Z,95.94
2017-07-12T04:06:00.869Z,96.22
2017-07-12T04:06:28.988Z,95.84
2017-07-12T04:06:56.943Z,96.42
2017-07-12T04:07:24.949Z,96.32
2017-07-12T04:07:53.084Z,96.37
2017-07-12T04:08:21.202Z,96.32
2017-07-12T04:08:49.325Z,96.22
2017-07-12T04:09:17.367Z,96.61
2017-07-12T04:09:45.276Z,97.18
2017-07-12T04:10:13.211Z,96.32
2017-07-12T04:10:41.255Z,96.03
2017-07-12T04:11:09.288Z,96.61
2017-07-12T04:11:37.324Z,96.32
2017-07-12T04:12:05.242Z,95.98
2017-07-12T04:12:33.385Z,96.51
2017-07-12T04:13:01.601Z,96.42
2017-07-12T04:13:29.629Z,96.13
2017-07-12T04:13:57.678Z,96.37
2017-07-12T04:14:25.715Z,96.32
2017-07-12T04:14:53.839Z,96.22
2017-07-12T04:15:21.972Z,96.32
2017-07-12T04:15:49.911Z,95.94
2017-07-12T04:16:18.034Z,96.42
2017-07-12T04:16:46.176Z,96.03
2017-07-12T04:17:14.169Z,96.32
2017-07-12T04:17:42.278Z,96.22
2017-07-12T04:18:10.314Z,96.13
2017-07-12T04:18:38.434Z,95.84
2017-07-12T04:19:06.441Z,95.46
2017-07-12T04:19:34.454Z,95.94
2017-07-12T04:20:02.511Z,96.13
2017-07-12T04:20:30.559Z,96.7
2017-07-12T04:20:58.603Z,96.22
2017-07-12T04:21:26.515Z,95.94
2017-07-12T04:21:54.606Z,96.22
2017-07-12T04:22:22.521Z,96.51
2017-07-12T04:22:50.532Z,95.84
2017-07-12T04:23:18.466Z,96.03
2017-07-12T04:23:46.163Z,96.22
2017-07-12T04:24:14.211Z,95.75
2017-07-12T04:24:42.247Z,95.36
2017-07-12T04:25:10.372Z,95.46
2017-07-12T04:25:38.505Z,95.94
2017-07-12T04:26:06.552Z,95.61
2017-07-12T04:26:34.669Z,95.65
2017-07-12T04:27:02.698Z,96.47
2017-07-12T04:27:30.608Z,96.27
2017-07-12T04:27:58.829Z,96.18
2017-07-12T04:28:26.967Z,95.98
2017-07-12T04:28:54.801Z,96.03
2017-07-12T04:29:22.747Z,96.27
2017-07-12T04:29:50.634Z,96.37
2017-07-12T04:30:18.665Z,95.61
2017-07-12T04:30:46.767Z,95.65
2017-07-12T04:31:14.599Z,95.75
2017-07-12T04:31:42.818Z,95.27
2017-07-12T04:32:10.947Z,95.46
2017-07-12T04:32:39.066Z,95.22
2017-07-12T04:33:07.259Z,95.65
2017-07-12T04:33:35.386Z,94.79
2017-07-12T04:34:03.522Z,94.84
2017-07-12T04:34:31.478Z,94.79
2017-07-12T04:34:59.632Z,94.84
2017-07-12T04:35:27.527Z,95.03
2017-07-12T04:35:55.643Z,94.17
2017-07-12T04:36:23.541Z,94.26
2017-07-12T04:36:51.481Z,94.26
2017-07-12T04:37:19.656Z,94.5
2017-07-12T04:37:47.399Z,94.26
2017-07-12T04:38:15.538Z,94.45
2017-07-12T04:38:43.576Z,94.93
2017-07-12T04:39:11.718Z,95.36
2017-07-12T04:39:39.853Z,95.31
2017-07-12T04:40:07.868Z,95.22
2017-07-12T04:40:35.902Z,95.41
2017-07-12T04:41:03.851Z,95.31
2017-07-12T04:41:31.988Z,95.12
2017-07-12T04:42:00.124Z,95.51
2017-07-12T04:42:28.159Z,95.41
2017-07-12T04:42:56.271Z,95.22
2017-07-12T04:43:24.400Z,95.22
2017-07-12T04:43:52.525Z,95.22
2017-07-12T04:44:20.558Z,95.61
2017-07-12T04:44:48.698Z,95.61
2017-07-12T04:45:16.738Z,96.27
2017-07-12T04:45:44.866Z,96.37
2017-07-12T04:46:12.794Z,96.27
2017-07-12T04:46:40.819Z,96.27
2017-07-12T04:47:08.937Z,96.08
2017-07-12T04:47:37.055Z,96.08
2017-07-12T04:48:05.093Z,96.27
2017-07-12T04:48:33.208Z,97.13
2017-07-12T04:49:01.229Z,97.13
2017-07-12T04:49:29.187Z,96.94
2017-07-12T04:49:57.326Z,97.23
2017-07-12T04:50:25.469Z,97.13
2017-07-12T04:50:53.355Z,97.52
2017-07-12T04:51:21.361Z,97.33
2017-07-12T04:51:49.475Z,96.84
2017-07-12T04:52:17.404Z,97.33
2017-07-12T04:52:45.503Z,97.33
2017-07-12T04:53:13.421Z,97.52
2017-07-12T04:53:41.538Z,98.47
2017-07-12T04:54:09.476Z,98.57
2017-07-12T04:54:37.418Z,98.19
2017-07-12T04:55:05.556Z,98.57
2017-07-12T04:55:33.712Z,97.33
2017-07-12T04:56:01.823Z,97.9
2017-07-12T04:56:29.865Z,97.71
2017-07-12T04:56:58.002Z,97.9
2017-07-12T04:57:25.927Z,97.33
2017-07-12T04:57:54.144Z,97.71
2017-07-12T04:58:22.264Z,97.42
2017-07-12T04:58:50.200Z,97.13
2017-07-12T04:59:17.998Z,96.84
2017-07-12T04:59:46.136Z,96.56
2017-07-12T05:00:14.275Z,96.84
2017-07-12T05:00:42.451Z,96.37
2017-07-12T05:01:10.497Z,96.27
2017-07-12T05:01:38.628Z,96.08
2017-07-12T05:02:06.641Z,96.27
2017-07-12T05:02:34.659Z,96.27
2017-07-12T05:03:03.114Z,96.08
2017-07-12T05:03:31.145Z,96.47
2017-07-12T05:03:59.299Z,96.27
2017-07-12T05:04:27.323Z,96.47
2017-07-12T05:04:55.438Z,96.47
2017-07-12T05:05:23.577Z,95.7
2017-07-12T05:05:51.718Z,96.08
2017-07-12T05:06:19.764Z,96.08
2017-07-12T05:06:47.825Z,96.75
2017-07-12T05:07:15.802Z,97.13
2017-07-12T05:07:43.813Z,98
2017-07-12T05:08:12.028Z,98.52
2017-07-12T05:08:40.036Z,98.95
2017-07-12T05:09:08.059Z,99.33
2017-07-12T05:09:36.110Z,99.05
2017-07-12T05:10:04.250Z,99.72
2017-07-12T05:10:32.358Z,99.67
2017-07-12T05:11:00.473Z,99.99
2017-07-12T05:11:28.418Z,99.96
2017-07-12T05:11:56.503Z,99.99
2017-07-12T05:12:24.536Z,99.76
2017-07-12T05:12:52.868Z,99.38
2017-07-12T05:13:20.972Z,99.99
2017-07-12T05:13:48.889Z,99.99
2017-07-12T05:14:16.894Z,99.91
2017-07-12T05:14:44.710Z,99.99
2017-07-12T05:15:12.710Z,99.24
2017-07-12T05:15:40.665Z,99.24
2017-07-12T05:16:08.695Z,99.52
2017-07-12T05:16:36.622Z,98.95
2017-07-12T05:17:04.629Z,98.9
2017-07-12T05:17:32.651Z,99.38
2017-07-12T05:18:00.789Z,98.33
2017-07-12T05:18:28.809Z,99
2017-07-12T05:18:56.932Z,98.81
2017-07-12T05:19:24.959Z,99.86
2017-07-12T05:19:52.898Z,99.76
2017-07-12T05:20:20.931Z,99.57
2017-07-12T05:20:48.946Z,99.76
2017-07-12T05:21:17.066Z,99.86
2017-07-12T05:21:44.904Z,99.38
2017-07-12T05:22:12.911Z,99.86
2017-07-12T05:22:40.845Z,99.48
2017-07-12T05:23:08.656Z,99.96
2017-07-12T05:23:36.490Z,99.99
2017-07-12T05:24:04.597Z,99.76
2017-07-12T05:24:32.510Z,99.99
2017-07-12T05:25:00.632Z,99.96
2017-07-12T05:25:28.742Z,99.86
2017-07-12T05:25:56.891Z,99.96
2017-07-12T05:26:24.911Z,99.96
2017-07-12T05:26:52.916Z,99.86
2017-07-12T05:27:21.036Z,99.99
2017-07-12T05:27:49.060Z,99.96
2017-07-12T05:28:17.366Z,99.86
2017-07-12T05:28:45.486Z,99.76
2017-07-12T05:29:13.605Z,99.99
2017-07-12T05:29:41.723Z,99.86
2017-07-12T05:30:09.844Z,99.67
2017-07-12T05:30:37.756Z,99.29
2017-07-12T05:31:05.705Z,99
2017-07-12T05:31:33.826Z,99
2017-07-12T05:32:01.874Z,98.52
2017-07-12T05:32:29.908Z,97.75
2017-07-12T05:32:57.841Z,97.08
2017-07-12T05:33:25.863Z,97.47
2017-07-12T05:33:53.802Z,97.47
2017-07-12T05:34:21.945Z,96.51
2017-07-12T05:34:50.008Z,96.42
2017-07-12T05:35:18.025Z,95.94
2017-07-12T05:35:46.155Z,97.18
2017-07-12T05:36:14.207Z,97.28
2017-07-12T05:36:42.237Z,97.47
2017-07-12T05:37:10.350Z,96.8
2017-07-12T05:37:38.371Z,96.8
2017-07-12T05:38:06.509Z,96.75
2017-07-12T05:38:34.531Z,96.75
2017-07-12T05:39:02.694Z,97.33
2017-07-12T05:39:30.489Z,97.28
2017-07-12T05:39:58.591Z,97.28
2017-07-12T05:40:26.562Z,97.66
2017-07-12T05:40:54.565Z,98.33
2017-07-12T05:41:22.596Z,99
2017-07-12T05:41:50.617Z,98.9
2017-07-12T05:42:18.766Z,99.48
2017-07-12T05:42:46.718Z,99.29
2017-07-12T05:43:15.124Z,99.1
2017-07-12T05:43:43.054Z,98.81
2017-07-12T05:44:10.986Z,99.29
2017-07-12T05:44:39.008Z,98.52
2017-07-12T05:45:07.048Z,98.71
2017-07-12T05:45:35.158Z,98.43
2017-07-12T05:46:03.295Z,98.43
2017-07-12T05:46:31.316Z,98.52
2017-07-12T05:46:59.339Z,97.85
2017-07-12T05:47:27.450Z,98.43
2017-07-12T05:47:55.469Z,98.24
2017-07-12T05:48:23.514Z,98.52
2017-07-12T05:48:51.629Z,98.61
2017-07-12T05:49:19.478Z,98.43
2017-07-12T05:49:47.612Z,98.71
2017-07-12T05:50:15.633Z,99.1
2017-07-12T05:50:43.710Z,99.1
2017-07-12T05:51:11.707Z,99.1
2017-07-12T05:51:39.615Z,98.61
2017-07-12T05:52:07.614Z,98.52
2017-07-12T05:52:35.462Z,98.61
2017-07-12T05:53:03.588Z,98.24
2017-07-12T05:53:31.611Z,98.52
2017-07-12T05:53:59.544Z,98.52
2017-07-12T05:54:27.667Z,97.85
2017-07-12T05:54:55.582Z,98.43
2017-07-12T05:55:23.718Z,98.43
2017-07-12T05:55:51.759Z,98.33
2017-07-12T05:56:19.784Z,98.43
2017-07-12T05:56:47.714Z,98.33
2017-07-12T05:57:15.745Z,98.33
2017-07-12T05:57:43.872Z,97.66
2017-07-12T05:58:11.991Z,97.85
2017-07-12T05:58:40.209Z,97.75
2017-07-12T05:59:08.312Z,97.47
2017-07-12T05:59:36.323Z,97.85
2017-07-12T06:00:04.442Z,97.95
2017-07-12T06:00:32.491Z,98.04
2017-07-12T06:01:00.522Z,97.66
2017-07-12T06:01:28.682Z,97.28
2017-07-12T06:01:56.816Z,97.66
2017-07-12T06:02:24.850Z,97.75
2017-07-12T06:02:53.018Z,97.66